Eagle Tampa — S6NK6 — position and weather

sailwx.info

Track history (hours):
 
Tides and Currents Weather Stations Pressure Air Temp Water Temp Dewpoint Dewpoint Depression Visibility Wind Speed Wind Dir Waves Ship Positions

Eagle Tampa

Last reported at 2015-Aug-29 08:33 UTC. Time now 2015-Aug-29 09:26 UTC.
Position N 17°33' W 063°11'.

Length 247 m; draft 8.5 m.

Type: Tanker. MMSI: 563936000.

Date/timePositionNaut miles runAvg speedWind from/ knotsBaromVisibWave heightAir tempDewpointWater temp
2015-Aug-29 08:33N 17°33' W 063°11'3 3.0
2015-Aug-29 07:32N 17°33' W 063°08'2 1.8
2015-Aug-29 06:33N 17°34' W 063°08'1 1.4
2015-Aug-29 05:32N 17°33' W 063°08'3 2.0
2015-Aug-29 04:08N 17°31' W 063°06'2 2.8
2015-Aug-29 03:30N 17°32' W 063°05'1 0.6
2015-Aug-29 01:26N 17°33' W 063°06'2 2.1
2015-Aug-29 00:31N 17°34' W 063°08'3 2.4
2015-Aug-28 23:30N 17°35' W 063°06'1 0.6
2015-Aug-28 22:32N 17°35' W 063°06'1 0.8
2015-Aug-28 21:31N 17°34' W 063°06'1 0.8
2015-Aug-28 20:08N 17°33' W 063°07'  
2015-Aug-23 06:18N 38°08' W 074°35'1113.8
2015-Aug-23 05:31N 38°17' W 074°41'1213.0
2015-Aug-23 04:33N 38°29' W 074°46'1313.4
2015-Aug-23 03:33N 38°40' W 074°56'1211.7
2015-Aug-23 02:33N 38°50' W 075°05'1312.7
2015-Aug-23 01:34N 39°02' W 075°10'1515.2
2015-Aug-23 00:33N 39°15' W 075°19'1514.9
2015-Aug-22 23:33N 39°26' W 075°32'1212.2
2015-Aug-22 22:33N 39°38' W 075°34'1010.0
2015-Aug-22 21:33N 39°47' W 075°28'4 3.6
2015-Aug-22 20:32N 39°49' W 075°23'0 0.0
2015-Aug-22 19:32N 39°49' W 075°24'0 0.1
2015-Aug-22 18:32N 39°49' W 075°23'0 0.2
2015-Aug-22 17:32N 39°49' W 075°24'0 0.0
2015-Aug-22 16:32N 39°49' W 075°24'0 0.0
2015-Aug-22 15:32N 39°49' W 075°24'0 0.0
2015-Aug-22 14:32N 39°49' W 075°24'0 0.1
2015-Aug-22 13:33N 39°49' W 075°24'5 5.1
2015-Aug-22 12:33N 39°51' W 075°18'1 1.2
2015-Aug-22 11:32N 39°51' W 075°16'0 0.0
2015-Aug-22 10:32N 39°51' W 075°16'0 0.0
2015-Aug-22 09:32N 39°51' W 075°16'0 0.0
2015-Aug-22 08:32N 39°51' W 075°16'0 0.0
2015-Aug-22 07:32N 39°51' W 075°16'0 0.0
2015-Aug-22 06:32N 39°51' W 075°16'0 0.0
2015-Aug-22 05:32N 39°51' W 075°16'0 0.0
2015-Aug-22 04:32N 39°51' W 075°16'0 0.0
2015-Aug-22 03:32N 39°51' W 075°16'0 0.0
2015-Aug-22 02:32N 39°51' W 075°16'0 0.0
2015-Aug-22 01:32N 39°51' W 075°16'0 0.0
2015-Aug-22 00:32N 39°51' W 075°16'0 0.0
2015-Aug-21 23:32N 39°51' W 075°16'0 0.0
2015-Aug-21 22:32N 39°51' W 075°16'0 0.0
2015-Aug-21 21:32N 39°51' W 075°16'0 0.0
2015-Aug-21 20:32N 39°51' W 075°16'0 0.0
2015-Aug-21 19:32N 39°51' W 075°16'0 0.0
2015-Aug-21 18:32N 39°51' W 075°16'0 0.0
2015-Aug-21 17:32N 39°51' W 075°16'0 0.0
2015-Aug-21 16:32N 39°51' W 075°16'0 0.0
2015-Aug-21 15:32N 39°51' W 075°16'0 0.0
2015-Aug-21 14:32N 39°51' W 075°16'0 0.0
2015-Aug-21 13:29N 39°51' W 075°16'0 0.0
2015-Aug-21 12:32N 39°51' W 075°16'0 0.0
2015-Aug-21 11:33N 39°51' W 075°16'6 5.8
2015-Aug-21 10:33N 39°49' W 075°23'1 1.0
2015-Aug-21 09:31N 39°48' W 075°25'0 0.0
2015-Aug-21 08:31N 39°48' W 075°25'0 0.0
2015-Aug-21 07:31N 39°48' W 075°25'0 0.0
2015-Aug-21 06:31N 39°48' W 075°25'0 0.1
2015-Aug-21 05:31N 39°48' W 075°25'0 0.2
2015-Aug-21 04:33N 39°48' W 075°25'1 0.7
2015-Aug-21 03:33N 39°48' W 075°26'5 4.9
2015-Aug-21 02:33N 39°44' W 075°30'7 7.2
2015-Aug-21 01:33N 39°38' W 075°34'8 7.7
2015-Aug-21 00:33N 39°30' W 075°33'10 9.6
2015-Aug-20 23:33N 39°22' W 075°27'1110.7
2015-Aug-20 22:33N 39°14' W 075°18'1010.4
2015-Aug-20 21:33N 39°05' W 075°11'1111.1
2015-Aug-20 20:33N 38°55' W 075°06'10 9.9
2015-Aug-20 19:33N 38°46' W 074°60'1211.4
2015-Aug-20 18:33N 38°38' W 074°50'11 2.1
2015-Aug-20 13:32N 38°31' W 074°39'0 0.0
2015-Aug-20 12:23N 38°31' W 074°39'0 0.0
2015-Aug-20 11:29N 38°31' W 074°39'0 0.0
2015-Aug-20 10:26N 38°31' W 074°39'0 0.0
2015-Aug-20 02:10N 38°31' W 074°39'0 0.4
2015-Aug-20 01:33N 38°31' W 074°39'4 4.5
2015-Aug-20 00:33N 38°26' W 074°37'1110.3
2015-Aug-19 23:27N 38°17' W 074°29'1312.0
2015-Aug-19 22:22N 38°06' W 074°20'  
Track history (hours):
 
Tides and Currents Weather Stations Pressure Air Temp Water Temp Dewpoint Dewpoint Depression Visibility Wind Speed Wind Dir Waves Ship Positions

Eagle Tampa

Last reported at 2015-Aug-29 08:33 UTC. Time now 2015-Aug-29 09:26 UTC.
Position N 17°33' W 063°11'.

Length 247 m; draft 8.5 m.

Type: Tanker. MMSI: 563936000.

Date/timePositionNaut miles runAvg speedWind from/ knotsBaromVisibWave heightAir tempDewpointWater temp
2015-Aug-29 08:33N 17°33' W 063°11'3 3.0
2015-Aug-29 07:32N 17°33' W 063°08'2 1.8
2015-Aug-29 06:33N 17°34' W 063°08'1 1.4
2015-Aug-29 05:32N 17°33' W 063°08'3 2.0
2015-Aug-29 04:08N 17°31' W 063°06'2 2.8
2015-Aug-29 03:30N 17°32' W 063°05'1 0.6
2015-Aug-29 01:26N 17°33' W 063°06'2 2.1
2015-Aug-29 00:31N 17°34' W 063°08'3 2.4
2015-Aug-28 23:30N 17°35' W 063°06'1 0.6
2015-Aug-28 22:32N 17°35' W 063°06'1 0.8
2015-Aug-28 21:31N 17°34' W 063°06'1 0.8
2015-Aug-28 20:08N 17°33' W 063°07'  
2015-Aug-23 06:18N 38°08' W 074°35'1113.8
2015-Aug-23 05:31N 38°17' W 074°41'1213.0
2015-Aug-23 04:33N 38°29' W 074°46'1313.4
2015-Aug-23 03:33N 38°40' W 074°56'1211.7
2015-Aug-23 02:33N 38°50' W 075°05'1312.7
2015-Aug-23 01:34N 39°02' W 075°10'1515.2
2015-Aug-23 00:33N 39°15' W 075°19'1514.9
2015-Aug-22 23:33N 39°26' W 075°32'1212.2
2015-Aug-22 22:33N 39°38' W 075°34'1010.0
2015-Aug-22 21:33N 39°47' W 075°28'4 3.6
2015-Aug-22 20:32N 39°49' W 075°23'0 0.0
2015-Aug-22 19:32N 39°49' W 075°24'0 0.1
2015-Aug-22 18:32N 39°49' W 075°23'0 0.2
2015-Aug-22 17:32N 39°49' W 075°24'0 0.0
2015-Aug-22 16:32N 39°49' W 075°24'0 0.0
2015-Aug-22 15:32N 39°49' W 075°24'0 0.0
2015-Aug-22 14:32N 39°49' W 075°24'0 0.1
2015-Aug-22 13:33N 39°49' W 075°24'5 5.1
2015-Aug-22 12:33N 39°51' W 075°18'1 1.2
2015-Aug-22 11:32N 39°51' W 075°16'0 0.0
2015-Aug-22 10:32N 39°51' W 075°16'0 0.0
2015-Aug-22 09:32N 39°51' W 075°16'0 0.0
2015-Aug-22 08:32N 39°51' W 075°16'0 0.0
2015-Aug-22 07:32N 39°51' W 075°16'0 0.0
2015-Aug-22 06:32N 39°51' W 075°16'0 0.0
2015-Aug-22 05:32N 39°51' W 075°16'0 0.0
2015-Aug-22 04:32N 39°51' W 075°16'0 0.0
2015-Aug-22 03:32N 39°51' W 075°16'0 0.0
2015-Aug-22 02:32N 39°51' W 075°16'0 0.0
2015-Aug-22 01:32N 39°51' W 075°16'0 0.0
2015-Aug-22 00:32N 39°51' W 075°16'0 0.0
2015-Aug-21 23:32N 39°51' W 075°16'0 0.0
2015-Aug-21 22:32N 39°51' W 075°16'0 0.0
2015-Aug-21 21:32N 39°51' W 075°16'0 0.0
2015-Aug-21 20:32N 39°51' W 075°16'0 0.0
2015-Aug-21 19:32N 39°51' W 075°16'0 0.0
2015-Aug-21 18:32N 39°51' W 075°16'0 0.0
2015-Aug-21 17:32N 39°51' W 075°16'0 0.0
2015-Aug-21 16:32N 39°51' W 075°16'0 0.0
2015-Aug-21 15:32N 39°51' W 075°16'0 0.0
2015-Aug-21 14:32N 39°51' W 075°16'0 0.0
2015-Aug-21 13:29N 39°51' W 075°16'0 0.0
2015-Aug-21 12:32N 39°51' W 075°16'0 0.0
2015-Aug-21 11:33N 39°51' W 075°16'6 5.8
2015-Aug-21 10:33N 39°49' W 075°23'1 1.0
2015-Aug-21 09:31N 39°48' W 075°25'0 0.0
2015-Aug-21 08:31N 39°48' W 075°25'0 0.0
2015-Aug-21 07:31N 39°48' W 075°25'0 0.0
2015-Aug-21 06:31N 39°48' W 075°25'0 0.1
2015-Aug-21 05:31N 39°48' W 075°25'0 0.2
2015-Aug-21 04:33N 39°48' W 075°25'1 0.7
2015-Aug-21 03:33N 39°48' W 075°26'5 4.9
2015-Aug-21 02:33N 39°44' W 075°30'7 7.2
2015-Aug-21 01:33N 39°38' W 075°34'8 7.7
2015-Aug-21 00:33N 39°30' W 075°33'10 9.6
2015-Aug-20 23:33N 39°22' W 075°27'1110.7
2015-Aug-20 22:33N 39°14' W 075°18'1010.4
2015-Aug-20 21:33N 39°05' W 075°11'1111.1
2015-Aug-20 20:33N 38°55' W 075°06'10 9.9
2015-Aug-20 19:33N 38°46' W 074°60'1211.4
2015-Aug-20 18:33N 38°38' W 074°50'11 2.1
2015-Aug-20 13:32N 38°31' W 074°39'0 0.0
2015-Aug-20 12:23N 38°31' W 074°39'0 0.0
2015-Aug-20 11:29N 38°31' W 074°39'0 0.0
2015-Aug-20 10:26N 38°31' W 074°39'0 0.0
2015-Aug-20 02:10N 38°31' W 074°39'0 0.4
2015-Aug-20 01:33N 38°31' W 074°39'4 4.5
2015-Aug-20 00:33N 38°26' W 074°37'1110.3
2015-Aug-19 23:27N 38°17' W 074°29'1312.0
2015-Aug-19 22:22N 38°06' W 074°20'  

Dump ship's entire track history